sensor_id;sensor_type;location;lat;lon;timestamp;pressure;altitude;pressure_sealevel;temperature;humidity
70954;BME280;58618;47.490;8.736;2023-03-19T00:01:33;96301.16;;;9.99;70.58
70954;BME280;58618;47.490;8.736;2023-03-19T00:04:21;96312.50;;;9.98;74.45
70954;BME280;58618;47.490;8.736;2023-03-19T00:07:09;96292.59;;;9.74;76.09
70954;BME280;58618;47.490;8.736;2023-03-19T00:09:56;96304.97;;;9.78;77.31
70954;BME280;58618;47.490;8.736;2023-03-19T00:12:44;96321.25;;;9.97;72.21
70954;BME280;58618;47.490;8.736;2023-03-19T00:15:31;96295.81;;;9.90;69.52
70954;BME280;58618;47.490;8.736;2023-03-19T00:18:20;96324.88;;;9.96;69.82
70954;BME280;58618;47.490;8.736;2023-03-19T00:21:07;96318.72;;;9.92;71.29
70954;BME280;58618;47.490;8.736;2023-03-19T00:23:54;96330.44;;;9.79;75.65
70954;BME280;58618;47.490;8.736;2023-03-19T00:26:46;96333.28;;;9.78;73.92
70954;BME280;58618;47.490;8.736;2023-03-19T00:29:33;96327.53;;;9.86;77.90
70954;BME280;58618;47.490;8.736;2023-03-19T00:32:21;96328.66;;;9.74;75.97
70954;BME280;58618;47.490;8.736;2023-03-19T00:35:10;96342.13;;;9.66;75.63
70954;BME280;58618;47.490;8.736;2023-03-19T00:37:57;96344.75;;;9.61;78.58
70954;BME280;58618;47.490;8.736;2023-03-19T00:40:44;96340.91;;;9.59;79.97
70954;BME280;58618;47.490;8.736;2023-03-19T00:43:33;96340.13;;;9.58;76.89
70954;BME280;58618;47.490;8.736;2023-03-19T00:46:22;96338.59;;;9.57;77.68
70954;BME280;58618;47.490;8.736;2023-03-19T00:49:09;96350.38;;;9.63;77.50
70954;BME280;58618;47.490;8.736;2023-03-19T00:51:58;96343.59;;;9.78;72.94
70954;BME280;58618;47.490;8.736;2023-03-19T00:54:45;96340.47;;;9.81;72.03
70954;BME280;58618;47.490;8.736;2023-03-19T00:57:32;96350.72;;;9.86;71.73
70954;BME280;58618;47.490;8.736;2023-03-19T01:00:20;96356.88;;;9.90;73.04
70954;BME280;58618;47.490;8.736;2023-03-19T01:03:08;96357.75;;;10.09;72.75
70954;BME280;58618;47.490;8.736;2023-03-19T01:05:56;96359.69;;;10.22;67.52
70954;BME280;58618;47.490;8.736;2023-03-19T01:08:45;96354.53;;;10.22;69.73
70954;BME280;58618;47.490;8.736;2023-03-19T01:11:32;96358.41;;;10.25;67.94
70954;BME280;58618;47.490;8.736;2023-03-19T01:14:20;96358.72;;;10.18;68.38
70954;BME280;58618;47.490;8.736;2023-03-19T01:17:07;96358.19;;;10.16;70.00
70954;BME280;58618;47.490;8.736;2023-03-19T01:19:55;96360.25;;;10.19;69.69
70954;BME280;58618;47.490;8.736;2023-03-19T01:22:42;96361.28;;;10.18;72.26
70954;BME280;58618;47.490;8.736;2023-03-19T01:25:31;96368.31;;;10.07;74.67
70954;BME280;58618;47.490;8.736;2023-03-19T01:28:18;96349.09;;;9.95;71.28
70954;BME280;58618;47.490;8.736;2023-03-19T01:31:08;96365.63;;;9.89;74.59
70954;BME280;58618;47.490;8.736;2023-03-19T01:33:55;96361.03;;;9.86;73.51
70954;BME280;58618;47.490;8.736;2023-03-19T01:36:42;96361.81;;;9.86;73.98
70954;BME280;58618;47.490;8.736;2023-03-19T01:39:30;96365.72;;;9.79;76.56
70954;BME280;58618;47.490;8.736;2023-03-19T01:42:19;96371.97;;;9.72;77.41
70954;BME280;58618;47.490;8.736;2023-03-19T01:45:31;96364.28;;;9.62;79.04
70954;BME280;58618;47.490;8.736;2023-03-19T01:48:24;96369.19;;;9.64;79.66
70954;BME280;58618;47.490;8.736;2023-03-19T01:51:16;96368.97;;;9.60;78.83
70954;BME280;58618;47.490;8.736;2023-03-19T01:54:06;96365.44;;;9.51;78.06
70954;BME280;58618;47.490;8.736;2023-03-19T01:56:58;96382.38;;;9.52;80.75
70954;BME280;58618;47.490;8.736;2023-03-19T01:59:50;96376.25;;;9.48;79.56
70954;BME280;58618;47.490;8.736;2023-03-19T02:02:39;96381.94;;;9.45;79.60
70954;BME280;58618;47.490;8.736;2023-03-19T02:05:27;96377.28;;;9.47;79.54
70954;BME280;58618;47.490;8.736;2023-03-19T02:08:16;96379.84;;;9.47;80.69
70954;BME280;58618;47.490;8.736;2023-03-19T02:11:05;96380.41;;;9.44;78.79
70954;BME280;58618;47.490;8.736;2023-03-19T02:13:52;96374.25;;;9.40;76.34
70954;BME280;58618;47.490;8.736;2023-03-19T02:16:41;96380.44;;;9.39;79.25
70954;BME280;58618;47.490;8.736;2023-03-19T02:19:34;96380.94;;;9.36;78.40
70954;BME280;58618;47.490;8.736;2023-03-19T02:22:28;96388.66;;;9.36;78.40
70954;BME280;58618;47.490;8.736;2023-03-19T02:25:24;96385.63;;;9.34;77.32
70954;BME280;58618;47.490;8.736;2023-03-19T02:28:16;96389.72;;;9.35;74.18
70954;BME280;58618;47.490;8.736;2023-03-19T02:31:05;96388.44;;;9.32;75.46
70954;BME280;58618;47.490;8.736;2023-03-19T02:33:58;96385.13;;;9.27;81.95
70954;BME280;58618;47.490;8.736;2023-03-19T02:36:48;96389.81;;;9.20;80.11
70954;BME280;58618;47.490;8.736;2023-03-19T02:39:42;96378.03;;;9.09;83.92
70954;BME280;58618;47.490;8.736;2023-03-19T02:42:32;96382.13;;;9.10;81.95
70954;BME280;58618;47.490;8.736;2023-03-19T02:45:22;96393.94;;;9.16;83.08
70954;BME280;58618;47.490;8.736;2023-03-19T02:48:14;96394.47;;;9.13;78.64
70954;BME280;58618;47.490;8.736;2023-03-19T02:51:01;96400.63;;;9.17;80.00
70954;BME280;58618;47.490;8.736;2023-03-19T02:53:49;96396.03;;;9.14;81.46
70954;BME280;58618;47.490;8.736;2023-03-19T02:56:36;96408.38;;;9.12;84.07
70954;BME280;58618;47.490;8.736;2023-03-19T02:59:24;96405.28;;;9.10;82.28
70954;BME280;58618;47.490;8.736;2023-03-19T03:02:12;96412.22;;;9.14;83.68
70954;BME280;58618;47.490;8.736;2023-03-19T03:05:00;96393.88;;;9.26;75.93
70954;BME280;58618;47.490;8.736;2023-03-19T03:07:47;96404.72;;;9.23;80.21
70954;BME280;58618;47.490;8.736;2023-03-19T03:10:34;96408.81;;;9.29;82.88
70954;BME280;58618;47.490;8.736;2023-03-19T03:13:22;96398.06;;;9.12;82.38
70954;BME280;58618;47.490;8.736;2023-03-19T03:16:10;96411.47;;;9.14;82.35
70954;BME280;58618;47.490;8.736;2023-03-19T03:18:58;96415.25;;;9.21;77.05
70954;BME280;58618;47.490;8.736;2023-03-19T03:21:47;96421.66;;;9.34;77.82
70954;BME280;58618;47.490;8.736;2023-03-19T03:24:34;96419.09;;;9.29;81.73
70954;BME280;58618;47.490;8.736;2023-03-19T03:27:21;96419.63;;;9.26;80.11
70954;BME280;58618;47.490;8.736;2023-03-19T03:30:10;96419.16;;;9.19;81.09
70954;BME280;58618;47.490;8.736;2023-03-19T03:32:57;96422.97;;;9.21;80.09
70954;BME280;58618;47.490;8.736;2023-03-19T03:35:46;96435.63;;;9.18;79.37
70954;BME280;58618;47.490;8.736;2023-03-19T03:38:33;96429.72;;;9.12;80.64
70954;BME280;58618;47.490;8.736;2023-03-19T03:41:20;96428.94;;;9.12;82.56
70954;BME280;58618;47.490;8.736;2023-03-19T03:44:08;96431.94;;;9.34;78.07
70954;BME280;58618;47.490;8.736;2023-03-19T03:46:55;96432.50;;;9.21;82.05
70954;BME280;58618;47.490;8.736;2023-03-19T03:49:42;96432.56;;;9.11;83.16
70954;BME280;58618;47.490;8.736;2023-03-19T03:52:32;96438.75;;;9.05;85.66
70954;BME280;58618;47.490;8.736;2023-03-19T03:55:19;96439.22;;;9.17;84.25
70954;BME280;58618;47.490;8.736;2023-03-19T03:58:06;96441.28;;;9.15;83.43
70954;BME280;58618;47.490;8.736;2023-03-19T04:00:54;96437.69;;;9.11;83.21
70954;BME280;58618;47.490;8.736;2023-03-19T04:03:41;96441.31;;;9.10;82.81
70954;BME280;58618;47.490;8.736;2023-03-19T04:06:29;96435.69;;;9.03;81.02
70954;BME280;58618;47.490;8.736;2023-03-19T04:09:18;96445.44;;;9.06;81.77
70954;BME280;58618;47.490;8.736;2023-03-19T04:12:05;96443.44;;;8.98;86.09
70954;BME280;58618;47.490;8.736;2023-03-19T04:14:53;96456.78;;;9.00;86.25
70954;BME280;58618;47.490;8.736;2023-03-19T04:17:40;96452.16;;;8.97;83.72
70954;BME280;58618;47.490;8.736;2023-03-19T04:20:27;96458.34;;;8.96;84.95
70954;BME280;58618;47.490;8.736;2023-03-19T04:23:15;96453.19;;;8.96;87.23
70954;BME280;58618;47.490;8.736;2023-03-19T04:26:05;96457.59;;;8.90;87.37
70954;BME280;58618;47.490;8.736;2023-03-19T04:28:53;96439.38;;;8.81;88.88
70954;BME280;58618;47.490;8.736;2023-03-19T04:31:40;96461.97;;;8.89;88.91
70954;BME280;58618;47.490;8.736;2023-03-19T04:34:28;96457.34;;;8.92;87.34
70954;BME280;58618;47.490;8.736;2023-03-19T04:37:15;96458.91;;;8.87;84.87
70954;BME280;58618;47.490;8.736;2023-03-19T04:40:03;96446.56;;;8.79;87.99
70954;BME280;58618;47.490;8.736;2023-03-19T04:42:52;96466.34;;;8.79;88.56
70954;BME280;58618;47.490;8.736;2023-03-19T04:45:39;96458.16;;;8.72;90.15
70954;BME280;58618;47.490;8.736;2023-03-19T04:48:27;96466.66;;;8.72;88.26
70954;BME280;58618;47.490;8.736;2023-03-19T04:51:14;96459.44;;;8.74;86.92
70954;BME280;58618;47.490;8.736;2023-03-19T04:54:02;96471.25;;;8.85;81.70
70954;BME280;58618;47.490;8.736;2023-03-19T04:56:50;96471.25;;;8.85;85.73
70954;BME280;58618;47.490;8.736;2023-03-19T04:59:39;96468.16;;;8.83;88.06
70954;BME280;58618;47.490;8.736;2023-03-19T05:02:27;96473.28;;;8.83;87.26
70954;BME280;58618;47.490;8.736;2023-03-19T05:05:14;96472.78;;;8.86;87.13
70954;BME280;58618;47.490;8.736;2023-03-19T05:08:02;96470.47;;;8.85;85.29
70954;BME280;58618;47.490;8.736;2023-03-19T05:10:49;96478.44;;;8.83;86.54
70954;BME280;58618;47.490;8.736;2023-03-19T05:13:36;96478.97;;;8.80;85.11
70954;BME280;58618;47.490;8.736;2023-03-19T05:16:25;96484.09;;;8.80;88.13
70954;BME280;58618;47.490;8.736;2023-03-19T05:19:12;96488.25;;;8.76;87.27
70954;BME280;58618;47.490;8.736;2023-03-19T05:22:00;96482.81;;;8.93;82.00
70954;BME280;58618;47.490;8.736;2023-03-19T05:24:47;96484.84;;;8.91;86.86
70954;BME280;58618;47.490;8.736;2023-03-19T05:27:34;96479.97;;;8.84;88.10
70954;BME280;58618;47.490;8.736;2023-03-19T05:30:22;96483.59;;;8.78;83.11
70954;BME280;58618;47.490;8.736;2023-03-19T05:33:10;96497.47;;;8.93;85.36
70954;BME280;58618;47.490;8.736;2023-03-19T05:35:58;96492.59;;;8.86;90.00
70954;BME280;58618;47.490;8.736;2023-03-19T05:38:45;96504.16;;;8.83;87.89
70954;BME280;58618;47.490;8.736;2023-03-19T05:41:33;96497.44;;;8.98;85.15
70954;BME280;58618;47.490;8.736;2023-03-19T05:44:20;96498.97;;;8.94;86.79
70954;BME280;58618;47.490;8.736;2023-03-19T05:47:09;96486.13;;;8.88;91.21
70954;BME280;58618;47.490;8.736;2023-03-19T05:49:58;96497.72;;;8.86;93.54
70954;BME280;58618;47.490;8.736;2023-03-19T05:52:45;96489.25;;;8.80;93.95
70954;BME280;58618;47.490;8.736;2023-03-19T05:55:33;96501.56;;;8.99;85.66
70954;BME280;58618;47.490;8.736;2023-03-19T05:58:20;96495.41;;;8.84;93.33
70954;BME280;58618;47.490;8.736;2023-03-19T06:01:08;96492.34;;;8.82;92.47
70954;BME280;58618;47.490;8.736;2023-03-19T06:03:55;96503.91;;;8.85;89.68
70954;BME280;58618;47.490;8.736;2023-03-19T06:06:44;96508.53;;;8.93;90.64
70954;BME280;58618;47.490;8.736;2023-03-19T06:09:31;96517.50;;;8.96;93.01
70954;BME280;58618;47.490;8.736;2023-03-19T06:12:19;96511.84;;;8.88;94.13
70954;BME280;58618;47.490;8.736;2023-03-19T06:15:08;96520.34;;;8.94;91.23
70954;BME280;58618;47.490;8.736;2023-03-19T06:17:55;96518.81;;;8.93;92.89
70954;BME280;58618;47.490;8.736;2023-03-19T06:20:43;96520.34;;;8.89;95.33
70954;BME280;58618;47.490;8.736;2023-03-19T06:23:33;96519.56;;;8.94;94.17
70954;BME280;58618;47.490;8.736;2023-03-19T06:26:21;96515.97;;;8.95;98.53
70954;BME280;58618;47.490;8.736;2023-03-19T06:29:08;96522.16;;;8.88;98.94
70954;BME280;58618;47.490;8.736;2023-03-19T06:31:56;96521.66;;;8.81;100.00
70954;BME280;58618;47.490;8.736;2023-03-19T06:34:43;96533.50;;;8.82;99.09
70954;BME280;58618;47.490;8.736;2023-03-19T06:37:30;96527.03;;;8.95;99.38
70954;BME280;58618;47.490;8.736;2023-03-19T06:40:19;96523.66;;;9.05;94.52
70954;BME280;58618;47.490;8.736;2023-03-19T06:43:06;96525.19;;;9.11;89.39
70954;BME280;58618;47.490;8.736;2023-03-19T06:45:54;96531.34;;;9.15;90.16
70954;BME280;58618;47.490;8.736;2023-03-19T06:48:42;96521.34;;;9.08;91.30
70954;BME280;58618;47.490;8.736;2023-03-19T06:51:29;96530.28;;;9.21;94.85
70954;BME280;58618;47.490;8.736;2023-03-19T06:54:16;96527.97;;;9.29;93.56
70954;BME280;58618;47.490;8.736;2023-03-19T06:57:05;96523.63;;;9.20;91.96
70954;BME280;58618;47.490;8.736;2023-03-19T06:59:52;96526.19;;;9.25;93.57
70954;BME280;58618;47.490;8.736;2023-03-19T07:02:40;96526.63;;;9.37;93.70
70954;BME280;58618;47.490;8.736;2023-03-19T07:05:27;96527.41;;;9.43;95.11
70954;BME280;58618;47.490;8.736;2023-03-19T07:08:14;96523.00;;;9.43;94.29
70954;BME280;58618;47.490;8.736;2023-03-19T07:11:03;96530.72;;;9.48;94.79
70954;BME280;58618;47.490;8.736;2023-03-19T07:13:52;96537.38;;;9.59;94.60
70954;BME280;58618;47.490;8.736;2023-03-19T07:16:39;96536.56;;;9.64;95.50
70954;BME280;58618;47.490;8.736;2023-03-19T07:19:27;96535.31;;;9.61;95.30
70954;BME280;58618;47.490;8.736;2023-03-19T07:22:14;96540.34;;;9.82;95.40
70954;BME280;58618;47.490;8.736;2023-03-19T07:25:02;96540.81;;;9.89;95.75
70954;BME280;58618;47.490;8.736;2023-03-19T07:27:49;96522.22;;;9.97;94.73
70954;BME280;58618;47.490;8.736;2023-03-19T07:30:38;96529.28;;;10.25;96.23
70954;BME280;58618;47.490;8.736;2023-03-19T07:33:25;96528.31;;;10.50;95.13
70954;BME280;58618;47.490;8.736;2023-03-19T07:36:13;96532.84;;;10.63;90.07
70954;BME280;58618;47.490;8.736;2023-03-19T07:39:00;96533.00;;;10.77;91.27
70954;BME280;58618;47.490;8.736;2023-03-19T07:41:48;96525.50;;;11.04;80.94
70954;BME280;58618;47.490;8.736;2023-03-19T07:44:36;96523.41;;;11.30;81.10
70954;BME280;58618;47.490;8.736;2023-03-19T07:47:24;96529.19;;;11.64;79.26
70954;BME280;58618;47.490;8.736;2023-03-19T07:50:12;96519.25;;;11.53;74.61
70954;BME280;58618;47.490;8.736;2023-03-19T07:52:59;96529.03;;;11.98;73.86
70954;BME280;58618;47.490;8.736;2023-03-19T07:55:47;96525.22;;;12.47;74.13
70954;BME280;58618;47.490;8.736;2023-03-19T07:58:34;96529.47;;;12.70;70.09
70954;BME280;58618;47.490;8.736;2023-03-19T08:01:22;96543.56;;;13.24;70.03
70954;BME280;58618;47.490;8.736;2023-03-19T08:04:10;96531.31;;;13.92;63.57
70954;BME280;58618;47.490;8.736;2023-03-19T08:06:58;96536.41;;;14.20;61.80
70954;BME280;58618;47.490;8.736;2023-03-19T08:09:46;96543.78;;;14.26;61.07
70954;BME280;58618;47.490;8.736;2023-03-19T08:12:33;96542.22;;;14.39;60.55
70954;BME280;58618;47.490;8.736;2023-03-19T08:15:26;96540.09;;;14.41;60.77
70954;BME280;58618;47.490;8.736;2023-03-19T08:18:13;96539.72;;;14.34;60.88
70954;BME280;58618;47.490;8.736;2023-03-19T08:21:02;96551.25;;;14.28;60.23
70954;BME280;58618;47.490;8.736;2023-03-19T08:23:49;96546.25;;;13.46;63.51
70954;BME280;58618;47.490;8.736;2023-03-19T08:26:37;96549.72;;;13.28;62.60
70954;BME280;58618;47.490;8.736;2023-03-19T08:29:25;96550.75;;;13.68;62.07
70954;BME280;58618;47.490;8.736;2023-03-19T08:32:12;96548.44;;;14.16;59.74
70954;BME280;58618;47.490;8.736;2023-03-19T08:34:59;96545.72;;;14.21;59.15
70954;BME280;58618;47.490;8.736;2023-03-19T08:37:48;96553.63;;;14.16;60.34
70954;BME280;58618;47.490;8.736;2023-03-19T08:40:35;96556.03;;;14.48;59.06
70954;BME280;58618;47.490;8.736;2023-03-19T08:43:22;96549.28;;;13.75;59.99
70954;BME280;58618;47.490;8.736;2023-03-19T08:46:10;96552.22;;;13.46;60.77
70954;BME280;58618;47.490;8.736;2023-03-19T08:48:57;96550.34;;;13.88;60.55
70954;BME280;58618;47.490;8.736;2023-03-19T08:51:44;96547.28;;;14.66;55.80
70954;BME280;58618;47.490;8.736;2023-03-19T08:54:33;96542.69;;;14.41;54.96
70954;BME280;58618;47.490;8.736;2023-03-19T08:57:21;96547.44;;;15.80;55.04
70954;BME280;58618;47.490;8.736;2023-03-19T09:00:09;96537.59;;;16.80;47.96
70954;BME280;58618;47.490;8.736;2023-03-19T09:02:57;96545.31;;;17.14;47.57
70954;BME280;58618;47.490;8.736;2023-03-19T09:05:45;96547.91;;;17.14;47.20
70954;BME280;58618;47.490;8.736;2023-03-19T09:08:33;96540.84;;;16.68;48.11
70954;BME280;58618;47.490;8.736;2023-03-19T09:11:22;96538.47;;;17.01;47.58
70954;BME280;58618;47.490;8.736;2023-03-19T09:14:09;96546.41;;;17.72;45.88
70954;BME280;58618;47.490;8.736;2023-03-19T09:16:58;96539.31;;;17.60;45.67
70954;BME280;58618;47.490;8.736;2023-03-19T09:19:45;96544.47;;;16.93;46.63
70954;BME280;58618;47.490;8.736;2023-03-19T09:22:32;96540.53;;;16.78;47.84
70954;BME280;58618;47.490;8.736;2023-03-19T09:25:20;96522.31;;;17.46;48.64
70954;BME280;58618;47.490;8.736;2023-03-19T09:28:09;96541.75;;;15.86;48.27
70954;BME280;58618;47.490;8.736;2023-03-19T09:30:57;96540.69;;;16.56;46.98
70954;BME280;58618;47.490;8.736;2023-03-19T09:33:44;96536.53;;;17.27;47.83
70954;BME280;58618;47.490;8.736;2023-03-19T09:36:32;96534.72;;;17.49;46.41
70954;BME280;58618;47.490;8.736;2023-03-19T09:39:19;96540.47;;;16.96;49.97
70954;BME280;58618;47.490;8.736;2023-03-19T09:42:23;96526.34;;;17.05;48.27
70954;BME280;58618;47.490;8.736;2023-03-19T09:45:17;96535.34;;;16.70;49.69
70954;BME280;58618;47.490;8.736;2023-03-19T09:48:18;96532.06;;;16.90;49.38
70954;BME280;58618;47.490;8.736;2023-03-19T09:51:10;96520.13;;;17.18;47.77
70954;BME280;58618;47.490;8.736;2023-03-19T09:54:03;96508.19;;;17.17;48.81
70954;BME280;58618;47.490;8.736;2023-03-19T09:56:54;96521.41;;;17.42;45.63
70954;BME280;58618;47.490;8.736;2023-03-19T09:59:41;96519.81;;;16.91;47.90
70954;BME280;58618;47.490;8.736;2023-03-19T10:02:39;96504.59;;;17.30;47.15
70954;BME280;58618;47.490;8.736;2023-03-19T10:05:38;96503.75;;;17.47;46.27
70954;BME280;58618;47.490;8.736;2023-03-19T10:08:48;96512.59;;;17.25;47.96
70954;BME280;58618;47.490;8.736;2023-03-19T10:11:51;96518.28;;;17.27;48.28
70954;BME280;58618;47.490;8.736;2023-03-19T10:15:09;96506.91;;;17.82;45.21
70954;BME280;58618;47.490;8.736;2023-03-19T10:18:04;96508.69;;;17.40;46.81
70954;BME280;58618;47.490;8.736;2023-03-19T10:20:55;96508.19;;;17.47;46.33
70954;BME280;58618;47.490;8.736;2023-03-19T10:23:45;96500.09;;;17.69;44.34
70954;BME280;58618;47.490;8.736;2023-03-19T10:26:34;96501.38;;;17.63;45.63
70954;BME280;58618;47.490;8.736;2023-03-19T10:29:23;96499.75;;;17.20;47.34
70954;BME280;58618;47.490;8.736;2023-03-19T10:32:16;96495.63;;;16.73;47.87
70954;BME280;58618;47.490;8.736;2023-03-19T10:35:11;96499.75;;;17.20;47.71
70954;BME280;58618;47.490;8.736;2023-03-19T10:38:15;96498.91;;;16.99;47.69
70954;BME280;58618;47.490;8.736;2023-03-19T10:41:15;96463.19;;;16.44;48.16
70954;BME280;58618;47.490;8.736;2023-03-19T10:44:10;96493.22;;;16.59;50.19
70954;BME280;58618;47.490;8.736;2023-03-19T10:47:09;96490.75;;;16.45;51.16
70954;BME280;58618;47.490;8.736;2023-03-19T10:49:56;96480.00;;;16.73;46.87
70954;BME280;58618;47.490;8.736;2023-03-19T10:52:49;96479.72;;;16.66;48.08
70954;BME280;58618;47.490;8.736;2023-03-19T10:55:37;96482.78;;;16.51;49.72
70954;BME280;58618;47.490;8.736;2023-03-19T10:58:27;96493.38;;;16.63;50.69
70954;BME280;58618;47.490;8.736;2023-03-19T11:01:15;96491.41;;;16.25;51.98
70954;BME280;58618;47.490;8.736;2023-03-19T11:04:11;96484.25;;;16.05;51.63
70954;BME280;58618;47.490;8.736;2023-03-19T11:07:02;96488.66;;;16.13;51.19
70954;BME280;58618;47.490;8.736;2023-03-19T11:09:54;96479.66;;;15.93;51.89
70954;BME280;58618;47.490;8.736;2023-03-19T11:12:46;96479.50;;;15.98;52.99
70954;BME280;58618;47.490;8.736;2023-03-19T11:15:36;96488.69;;;16.22;52.52
70954;BME280;58618;47.490;8.736;2023-03-19T11:18:27;96496.09;;;16.58;50.07
70954;BME280;58618;47.490;8.736;2023-03-19T11:21:23;96483.56;;;16.51;50.72
70954;BME280;58618;47.490;8.736;2023-03-19T11:24:11;96482.50;;;16.99;50.73
70954;BME280;58618;47.490;8.736;2023-03-19T11:27:00;96476.88;;;16.88;50.97
70954;BME280;58618;47.490;8.736;2023-03-19T11:29:48;96478.16;;;17.41;46.91
70954;BME280;58618;47.490;8.736;2023-03-19T11:36:04;96463.94;;;17.59;46.52
70954;BME280;58618;47.490;8.736;2023-03-19T11:39:09;96455.63;;;17.36;46.76
70954;BME280;58618;47.490;8.736;2023-03-19T11:42:10;96449.22;;;17.34;46.58
70954;BME280;58618;47.490;8.736;2023-03-19T11:45:17;96449.75;;;17.18;46.59
70954;BME280;58618;47.490;8.736;2023-03-19T11:48:22;96429.00;;;17.01;47.92
70954;BME280;58618;47.490;8.736;2023-03-19T11:51:17;96454.25;;;17.39;49.67
70954;BME280;58618;47.490;8.736;2023-03-19T11:54:12;96457.06;;;17.34;49.34
70954;BME280;58618;47.490;8.736;2023-03-19T11:57:08;96459.66;;;17.04;49.82
70954;BME280;58618;47.490;8.736;2023-03-19T12:00:10;96441.66;;;16.82;49.62
70954;BME280;58618;47.490;8.736;2023-03-19T12:03:45;96441.41;;;17.34;46.89
70954;BME280;58618;47.490;8.736;2023-03-19T12:06:46;96442.38;;;17.20;48.71
70954;BME280;58618;47.490;8.736;2023-03-19T12:09:46;96449.03;;;17.09;49.45
70954;BME280;58618;47.490;8.736;2023-03-19T12:12:41;96441.59;;;16.99;49.06
70954;BME280;58618;47.490;8.736;2023-03-19T12:15:36;96448.56;;;17.16;49.57
70954;BME280;58618;47.490;8.736;2023-03-19T12:18:41;96441.28;;;17.01;50.38
70954;BME280;58618;47.490;8.736;2023-03-19T12:21:40;96444.78;;;17.05;49.54
70954;BME280;58618;47.490;8.736;2023-03-19T12:24:40;96444.19;;;17.28;49.78
70954;BME280;58618;47.490;8.736;2023-03-19T12:27:31;96438.13;;;17.66;46.10
70954;BME280;58618;47.490;8.736;2023-03-19T12:30:31;96436.31;;;17.58;46.53
70954;BME280;58618;47.490;8.736;2023-03-19T12:33:30;96442.06;;;17.72;45.37
70954;BME280;58618;47.490;8.736;2023-03-19T12:36:26;96432.28;;;17.69;45.45
70954;BME280;58618;47.490;8.736;2023-03-19T12:39:19;96432.84;;;17.24;48.62
70954;BME280;58618;47.490;8.736;2023-03-19T12:42:12;96436.00;;;17.09;49.64
70954;BME280;58618;47.490;8.736;2023-03-19T12:45:07;96439.56;;;17.05;48.35
70954;BME280;58618;47.490;8.736;2023-03-19T12:48:05;96433.59;;;17.04;48.93
70954;BME280;58618;47.490;8.736;2023-03-19T12:50:58;96431.22;;;17.41;46.02
70954;BME280;58618;47.490;8.736;2023-03-19T12:53:53;96437.00;;;16.96;47.79
70954;BME280;58618;47.490;8.736;2023-03-19T12:56:46;96438.66;;;17.01;48.39
70954;BME280;58618;47.490;8.736;2023-03-19T12:59:36;96437.97;;;16.83;49.09
70954;BME280;58618;47.490;8.736;2023-03-19T13:02:31;96435.53;;;16.86;50.03
70954;BME280;58618;47.490;8.736;2023-03-19T13:05:29;96432.34;;;17.31;46.98
70954;BME280;58618;47.490;8.736;2023-03-19T13:08:22;96421.91;;;17.10;47.17
70954;BME280;58618;47.490;8.736;2023-03-19T13:11:15;96426.22;;;17.06;50.51
70954;BME280;58618;47.490;8.736;2023-03-19T13:14:10;96438.91;;;17.16;49.30
70954;BME280;58618;47.490;8.736;2023-03-19T13:17:07;96433.50;;;17.21;48.47
70954;BME280;58618;47.490;8.736;2023-03-19T13:20:00;96443.41;;;17.07;49.21
70954;BME280;58618;47.490;8.736;2023-03-19T13:22:55;96437.63;;;16.93;49.29
70954;BME280;58618;47.490;8.736;2023-03-19T13:25:47;96440.41;;;16.88;49.89
70954;BME280;58618;47.490;8.736;2023-03-19T13:28:37;96441.03;;;16.85;49.16
70954;BME280;58618;47.490;8.736;2023-03-19T13:31:26;96439.34;;;16.89;49.49
70954;BME280;58618;47.490;8.736;2023-03-19T13:34:19;96437.63;;;16.93;49.97
70954;BME280;58618;47.490;8.736;2023-03-19T13:37:12;96436.56;;;16.94;50.31
70954;BME280;58618;47.490;8.736;2023-03-19T13:40:04;96431.44;;;17.06;47.97
70954;BME280;58618;47.490;8.736;2023-03-19T13:42:55;96430.81;;;16.71;50.22
70954;BME280;58618;47.490;8.736;2023-03-19T13:45:43;96418.78;;;16.87;46.82
70954;BME280;58618;47.490;8.736;2023-03-19T13:48:37;96430.75;;;16.88;49.23
70954;BME280;58618;47.490;8.736;2023-03-19T13:51:27;96432.59;;;16.41;49.93
70954;BME280;58618;47.490;8.736;2023-03-19T13:54:17;96424.31;;;16.39;49.76
70954;BME280;58618;47.490;8.736;2023-03-19T13:57:32;96424.25;;;16.57;48.87
70954;BME280;58618;47.490;8.736;2023-03-19T14:00:53;96429.63;;;16.52;49.25
70954;BME280;58618;47.490;8.736;2023-03-19T14:03:51;96433.56;;;16.11;51.96
70954;BME280;58618;47.490;8.736;2023-03-19T14:06:42;96432.38;;;16.00;52.16
70954;BME280;58618;47.490;8.736;2023-03-19T14:09:37;96430.56;;;15.75;53.45
70954;BME280;58618;47.490;8.736;2023-03-19T14:12:33;96427.16;;;15.66;56.32
70954;BME280;58618;47.490;8.736;2023-03-19T14:15:22;96428.19;;;15.39;59.79
70954;BME280;58618;47.490;8.736;2023-03-19T14:18:13;96429.19;;;14.95;60.13
70954;BME280;58618;47.490;8.736;2023-03-19T14:21:07;96429.81;;;15.09;56.77
70954;BME280;58618;47.490;8.736;2023-03-19T14:23:55;96435.31;;;14.99;57.63
70954;BME280;58618;47.490;8.736;2023-03-19T14:26:42;96441.38;;;14.86;59.00
70954;BME280;58618;47.490;8.736;2023-03-19T14:29:33;96436.19;;;14.86;59.47
70954;BME280;58618;47.490;8.736;2023-03-19T14:32:27;96438.75;;;14.77;59.64
70954;BME280;58618;47.490;8.736;2023-03-19T14:35:18;96447.94;;;14.92;58.45
70954;BME280;58618;47.490;8.736;2023-03-19T14:38:10;96448.78;;;15.01;56.82
70954;BME280;58618;47.490;8.736;2023-03-19T14:41:01;96457.81;;;14.72;57.26
70954;BME280;58618;47.490;8.736;2023-03-19T14:44:04;96448.53;;;14.80;56.15
70954;BME280;58618;47.490;8.736;2023-03-19T14:47:14;96444.75;;;14.33;57.54
70954;BME280;58618;47.490;8.736;2023-03-19T14:50:20;96465.34;;;14.29;59.05
70954;BME280;58618;47.490;8.736;2023-03-19T14:53:15;96469.56;;;13.94;61.92
70954;BME280;58618;47.490;8.736;2023-03-19T14:56:12;96484.97;;;13.77;62.51
70954;BME280;58618;47.490;8.736;2023-03-19T14:59:00;96480.16;;;13.35;66.17
70954;BME280;58618;47.490;8.736;2023-03-19T15:01:52;96483.72;;;13.11;66.66
70954;BME280;58618;47.490;8.736;2023-03-19T15:04:43;96491.28;;;12.94;69.48
70954;BME280;58618;47.490;8.736;2023-03-19T15:07:33;96489.16;;;12.96;71.02
70954;BME280;58618;47.490;8.736;2023-03-19T15:10:27;96486.19;;;12.89;72.65
70954;BME280;58618;47.490;8.736;2023-03-19T15:13:31;96492.47;;;12.56;75.89